sensor_id;sensor_type;location;lat;lon;timestamp;temperature;humidity
58983;DHT22;44771;49.982;8.560;2023-07-09T00:01:32;17.20;99.90
58983;DHT22;44771;49.982;8.560;2023-07-09T00:06:34;17.00;99.90
58983;DHT22;44771;49.982;8.560;2023-07-09T00:11:37;16.60;99.90
58983;DHT22;44771;49.982;8.560;2023-07-09T00:16:40;16.50;99.90
58983;DHT22;44771;49.982;8.560;2023-07-09T00:21:43;16.50;99.90
58983;DHT22;44771;49.982;8.560;2023-07-09T00:26:46;16.40;99.90
58983;DHT22;44771;49.982;8.560;2023-07-09T00:31:48;16.30;99.90
58983;DHT22;44771;49.982;8.560;2023-07-09T00:36:49;16.40;99.90
58983;DHT22;44771;49.982;8.560;2023-07-09T00:41:53;16.10;99.90
58983;DHT22;44771;49.982;8.560;2023-07-09T00:47:17;16.10;99.90
58983;DHT22;44771;49.982;8.560;2023-07-09T00:52:24;16.10;99.90
58983;DHT22;44771;49.982;8.560;2023-07-09T00:57:28;16.10;99.90
58983;DHT22;44771;49.982;8.560;2023-07-09T01:02:30;16.20;99.90
58983;DHT22;44771;49.982;8.560;2023-07-09T01:07:32;16.10;99.90
58983;DHT22;44771;49.982;8.560;2023-07-09T01:12:35;16.00;99.90
58983;DHT22;44771;49.982;8.560;2023-07-09T01:17:37;15.70;99.90
58983;DHT22;44771;49.982;8.560;2023-07-09T01:22:40;15.70;99.90
58983;DHT22;44771;49.982;8.560;2023-07-09T01:27:45;15.60;99.90
58983;DHT22;44771;49.982;8.560;2023-07-09T01:32:47;15.60;99.90
58983;DHT22;44771;49.982;8.560;2023-07-09T01:37:50;15.50;99.90
58983;DHT22;44771;49.982;8.560;2023-07-09T01:42:52;15.40;99.90
58983;DHT22;44771;49.982;8.560;2023-07-09T01:47:55;15.40;99.90
58983;DHT22;44771;49.982;8.560;2023-07-09T01:52:58;15.40;99.90
58983;DHT22;44771;49.982;8.560;2023-07-09T01:58:00;15.30;99.90
58983;DHT22;44771;49.982;8.560;2023-07-09T02:03:03;15.30;99.90
58983;DHT22;44771;49.982;8.560;2023-07-09T02:08:06;15.10;99.90
58983;DHT22;44771;49.982;8.560;2023-07-09T02:13:08;15.10;99.90
58983;DHT22;44771;49.982;8.560;2023-07-09T02:18:09;15.10;99.90
58983;DHT22;44771;49.982;8.560;2023-07-09T02:23:13;15.00;99.90
58983;DHT22;44771;49.982;8.560;2023-07-09T02:28:14;14.90;99.90
58983;DHT22;44771;49.982;8.560;2023-07-09T02:33:16;14.90;99.90
58983;DHT22;44771;49.982;8.560;2023-07-09T02:38:19;14.90;99.90
58983;DHT22;44771;49.982;8.560;2023-07-09T02:43:21;15.10;99.90
58983;DHT22;44771;49.982;8.560;2023-07-09T02:48:23;14.70;99.90
58983;DHT22;44771;49.982;8.560;2023-07-09T02:53:26;14.60;99.90
58983;DHT22;44771;49.982;8.560;2023-07-09T02:58:28;14.50;99.90
58983;DHT22;44771;49.982;8.560;2023-07-09T03:03:30;14.50;99.90
58983;DHT22;44771;49.982;8.560;2023-07-09T03:08:33;14.40;99.90
58983;DHT22;44771;49.982;8.560;2023-07-09T03:13:35;14.40;99.90
58983;DHT22;44771;49.982;8.560;2023-07-09T03:18:37;14.50;99.90
58983;DHT22;44771;49.982;8.560;2023-07-09T03:23:40;14.40;99.90
58983;DHT22;44771;49.982;8.560;2023-07-09T03:28:43;14.60;99.90
58983;DHT22;44771;49.982;8.560;2023-07-09T03:33:46;14.30;99.90
58983;DHT22;44771;49.982;8.560;2023-07-09T03:38:49;14.30;99.90
58983;DHT22;44771;49.982;8.560;2023-07-09T03:43:51;14.40;99.90
58983;DHT22;44771;49.982;8.560;2023-07-09T03:48:53;14.50;99.90
58983;DHT22;44771;49.982;8.560;2023-07-09T03:53:56;14.60;99.90
58983;DHT22;44771;49.982;8.560;2023-07-09T03:58:58;14.70;99.90
58983;DHT22;44771;49.982;8.560;2023-07-09T04:04:00;14.70;99.90
58983;DHT22;44771;49.982;8.560;2023-07-09T04:09:03;14.70;99.90
58983;DHT22;44771;49.982;8.560;2023-07-09T04:14:05;14.70;99.90
58983;DHT22;44771;49.982;8.560;2023-07-09T04:19:06;14.60;99.90
58983;DHT22;44771;49.982;8.560;2023-07-09T04:24:10;14.60;99.90
58983;DHT22;44771;49.982;8.560;2023-07-09T04:29:12;14.70;99.90
58983;DHT22;44771;49.982;8.560;2023-07-09T04:34:14;14.90;99.90
58983;DHT22;44771;49.982;8.560;2023-07-09T04:39:17;15.00;99.90
58983;DHT22;44771;49.982;8.560;2023-07-09T04:44:19;15.20;99.90
58983;DHT22;44771;49.982;8.560;2023-07-09T04:49:24;15.50;99.90
58983;DHT22;44771;49.982;8.560;2023-07-09T04:54:28;15.70;99.90
58983;DHT22;44771;49.982;8.560;2023-07-09T04:59:29;15.90;99.90
58983;DHT22;44771;49.982;8.560;2023-07-09T05:04:31;16.10;99.90
58983;DHT22;44771;49.982;8.560;2023-07-09T05:09:34;16.20;99.90
58983;DHT22;44771;49.982;8.560;2023-07-09T05:14:37;16.50;99.90
58983;DHT22;44771;49.982;8.560;2023-07-09T05:19:38;16.70;99.90
58983;DHT22;44771;49.982;8.560;2023-07-09T05:24:44;16.90;99.90
58983;DHT22;44771;49.982;8.560;2023-07-09T05:29:46;17.10;99.90
58983;DHT22;44771;49.982;8.560;2023-07-09T05:34:48;17.30;99.90
58983;DHT22;44771;49.982;8.560;2023-07-09T05:39:51;17.60;99.90
58983;DHT22;44771;49.982;8.560;2023-07-09T05:44:53;17.90;99.90
58983;DHT22;44771;49.982;8.560;2023-07-09T05:49:55;18.10;99.90
58983;DHT22;44771;49.982;8.560;2023-07-09T05:54:58;18.30;99.90
58983;DHT22;44771;49.982;8.560;2023-07-09T06:00:00;18.50;99.90
58983;DHT22;44771;49.982;8.560;2023-07-09T06:05:02;18.70;99.90
58983;DHT22;44771;49.982;8.560;2023-07-09T06:10:06;19.00;99.90
58983;DHT22;44771;49.982;8.560;2023-07-09T06:15:10;19.30;99.90
58983;DHT22;44771;49.982;8.560;2023-07-09T06:20:12;19.60;99.90
58983;DHT22;44771;49.982;8.560;2023-07-09T06:25:18;19.60;99.90
58983;DHT22;44771;49.982;8.560;2023-07-09T06:30:20;20.00;99.90
58983;DHT22;44771;49.982;8.560;2023-07-09T06:35:22;20.50;99.90
58983;DHT22;44771;49.982;8.560;2023-07-09T06:40:25;20.70;99.90
58983;DHT22;44771;49.982;8.560;2023-07-09T06:45:26;21.10;99.90
58983;DHT22;44771;49.982;8.560;2023-07-09T06:50:28;21.50;99.90
58983;DHT22;44771;49.982;8.560;2023-07-09T06:55:32;21.70;99.90
58983;DHT22;44771;49.982;8.560;2023-07-09T07:00:35;21.80;99.90
58983;DHT22;44771;49.982;8.560;2023-07-09T07:05:37;22.10;99.90
58983;DHT22;44771;49.982;8.560;2023-07-09T07:10:40;22.20;99.90
58983;DHT22;44771;49.982;8.560;2023-07-09T07:15:51;22.50;99.90
58983;DHT22;44771;49.982;8.560;2023-07-09T07:20:59;22.70;99.90
58983;DHT22;44771;49.982;8.560;2023-07-09T07:26:03;23.00;99.90
58983;DHT22;44771;49.982;8.560;2023-07-09T07:31:18;23.50;99.90
58983;DHT22;44771;49.982;8.560;2023-07-09T07:36:20;23.90;99.90
58983;DHT22;44771;49.982;8.560;2023-07-09T07:41:33;24.20;99.70
58983;DHT22;44771;49.982;8.560;2023-07-09T07:46:35;24.60;99.30
58983;DHT22;44771;49.982;8.560;2023-07-09T07:51:37;25.00;97.50
58983;DHT22;44771;49.982;8.560;2023-07-09T07:56:40;25.40;97.30
58983;DHT22;44771;49.982;8.560;2023-07-09T08:01:42;25.70;96.40
58983;DHT22;44771;49.982;8.560;2023-07-09T08:06:44;26.10;95.30
58983;DHT22;44771;49.982;8.560;2023-07-09T08:11:47;26.60;94.70
58983;DHT22;44771;49.982;8.560;2023-07-09T08:16:49;27.00;93.80
58983;DHT22;44771;49.982;8.560;2023-07-09T08:21:51;27.40;92.00
58983;DHT22;44771;49.982;8.560;2023-07-09T08:26:54;27.80;91.10
58983;DHT22;44771;49.982;8.560;2023-07-09T08:31:56;28.00;89.30
58983;DHT22;44771;49.982;8.560;2023-07-09T08:36:58;28.20;87.90
58983;DHT22;44771;49.982;8.560;2023-07-09T08:42:07;28.60;87.40
58983;DHT22;44771;49.982;8.560;2023-07-09T08:47:22;29.10;84.30
58983;DHT22;44771;49.982;8.560;2023-07-09T08:52:33;29.30;83.30
58983;DHT22;44771;49.982;8.560;2023-07-09T08:57:40;29.60;80.50
58983;DHT22;44771;49.982;8.560;2023-07-09T09:02:46;29.90;79.90
58983;DHT22;44771;49.982;8.560;2023-07-09T09:07:54;30.20;78.50
58983;DHT22;44771;49.982;8.560;2023-07-09T09:13:05;30.30;76.50
58983;DHT22;44771;49.982;8.560;2023-07-09T09:18:21;30.70;75.40
58983;DHT22;44771;49.982;8.560;2023-07-09T09:23:27;31.00;71.50
58983;DHT22;44771;49.982;8.560;2023-07-09T09:28:36;31.20;70.60
58983;DHT22;44771;49.982;8.560;2023-07-09T09:33:41;31.60;71.20
58983;DHT22;44771;49.982;8.560;2023-07-09T09:38:43;31.90;68.00
58983;DHT22;44771;49.982;8.560;2023-07-09T09:43:48;32.00;65.20
58983;DHT22;44771;49.982;8.560;2023-07-09T09:49:00;32.20;65.00
58983;DHT22;44771;49.982;8.560;2023-07-09T09:54:02;32.50;64.80
58983;DHT22;44771;49.982;8.560;2023-07-09T09:59:05;32.60;64.40
58983;DHT22;44771;49.982;8.560;2023-07-09T10:04:11;32.90;65.20
58983;DHT22;44771;49.982;8.560;2023-07-09T10:09:24;33.10;62.00
58983;DHT22;44771;49.982;8.560;2023-07-09T10:14:37;33.40;61.90
58983;DHT22;44771;49.982;8.560;2023-07-09T10:19:48;33.60;60.90
58983;DHT22;44771;49.982;8.560;2023-07-09T10:24:55;33.90;58.40
58983;DHT22;44771;49.982;8.560;2023-07-09T10:30:14;34.10;57.90
58983;DHT22;44771;49.982;8.560;2023-07-09T10:35:27;34.40;58.00
58983;DHT22;44771;49.982;8.560;2023-07-09T10:40:36;34.60;55.70
58983;DHT22;44771;49.982;8.560;2023-07-09T10:45:42;34.60;56.10
58983;DHT22;44771;49.982;8.560;2023-07-09T10:50:49;34.70;56.90
58983;DHT22;44771;49.982;8.560;2023-07-09T10:55:55;35.00;53.70
58983;DHT22;44771;49.982;8.560;2023-07-09T11:00:59;35.20;54.20
58983;DHT22;44771;49.982;8.560;2023-07-09T11:06:03;35.20;55.80
58983;DHT22;44771;49.982;8.560;2023-07-09T11:11:10;35.30;51.80
58983;DHT22;44771;49.982;8.560;2023-07-09T11:16:25;35.40;51.60
58983;DHT22;44771;49.982;8.560;2023-07-09T11:21:27;35.40;49.90
58983;DHT22;44771;49.982;8.560;2023-07-09T11:26:31;35.50;52.30
58983;DHT22;44771;49.982;8.560;2023-07-09T11:31:37;35.60;51.40
58983;DHT22;44771;49.982;8.560;2023-07-09T11:36:51;35.60;52.00
58983;DHT22;44771;49.982;8.560;2023-07-09T11:41:57;35.80;50.80
58983;DHT22;44771;49.982;8.560;2023-07-09T11:47:19;35.90;49.30
58983;DHT22;44771;49.982;8.560;2023-07-09T11:52:25;36.20;49.50
58983;DHT22;44771;49.982;8.560;2023-07-09T11:57:29;36.40;49.80
58983;DHT22;44771;49.982;8.560;2023-07-09T12:02:33;36.30;49.30
58983;DHT22;44771;49.982;8.560;2023-07-09T12:07:35;36.30;49.10
58983;DHT22;44771;49.982;8.560;2023-07-09T12:12:42;36.40;48.60
58983;DHT22;44771;49.982;8.560;2023-07-09T12:17:52;36.30;47.50
58983;DHT22;44771;49.982;8.560;2023-07-09T12:22:54;36.40;50.10
58983;DHT22;44771;49.982;8.560;2023-07-09T12:27:58;36.60;50.10
58983;DHT22;44771;49.982;8.560;2023-07-09T12:33:08;36.40;48.30
58983;DHT22;44771;49.982;8.560;2023-07-09T12:38:17;36.50;47.60
58983;DHT22;44771;49.982;8.560;2023-07-09T12:43:24;36.40;47.50
58983;DHT22;44771;49.982;8.560;2023-07-09T12:48:30;36.20;47.20
58983;DHT22;44771;49.982;8.560;2023-07-09T12:53:31;36.10;46.60
58983;DHT22;44771;49.982;8.560;2023-07-09T12:58:37;36.40;47.30
58983;DHT22;44771;49.982;8.560;2023-07-09T13:03:40;36.60;45.60
58983;DHT22;44771;49.982;8.560;2023-07-09T13:08:43;36.80;45.40
58983;DHT22;44771;49.982;8.560;2023-07-09T13:13:54;36.80;46.20
58983;DHT22;44771;49.982;8.560;2023-07-09T13:18:57;37.00;45.20
58983;DHT22;44771;49.982;8.560;2023-07-09T13:24:08;37.10;47.70
58983;DHT22;44771;49.982;8.560;2023-07-09T13:29:14;37.30;44.90
58983;DHT22;44771;49.982;8.560;2023-07-09T13:34:19;37.20;43.60
58983;DHT22;44771;49.982;8.560;2023-07-09T13:39:22;37.00;42.70
58983;DHT22;44771;49.982;8.560;2023-07-09T13:44:30;37.00;44.90
58983;DHT22;44771;49.982;8.560;2023-07-09T13:49:33;37.10;42.90
58983;DHT22;44771;49.982;8.560;2023-07-09T13:54:35;37.10;44.30
58983;DHT22;44771;49.982;8.560;2023-07-09T13:59:37;37.20;43.40
58983;DHT22;44771;49.982;8.560;2023-07-09T14:04:41;37.10;43.30
58983;DHT22;44771;49.982;8.560;2023-07-09T14:09:43;37.20;42.70
58983;DHT22;44771;49.982;8.560;2023-07-09T14:14:44;36.90;44.00
58983;DHT22;44771;49.982;8.560;2023-07-09T14:19:48;36.90;43.50
58983;DHT22;44771;49.982;8.560;2023-07-09T14:24:51;36.80;44.60
58983;DHT22;44771;49.982;8.560;2023-07-09T14:29:53;36.80;44.80
58983;DHT22;44771;49.982;8.560;2023-07-09T14:34:56;36.90;43.60
58983;DHT22;44771;49.982;8.560;2023-07-09T14:39:58;36.70;42.90
58983;DHT22;44771;49.982;8.560;2023-07-09T14:45:00;36.50;43.00
58983;DHT22;44771;49.982;8.560;2023-07-09T14:50:03;36.10;44.60
58983;DHT22;44771;49.982;8.560;2023-07-09T14:55:07;36.10;45.80
58983;DHT22;44771;49.982;8.560;2023-07-09T15:00:14;35.90;44.70
58983;DHT22;44771;49.982;8.560;2023-07-09T15:05:19;35.70;45.20
58983;DHT22;44771;49.982;8.560;2023-07-09T15:10:23;35.70;44.30
58983;DHT22;44771;49.982;8.560;2023-07-09T15:15:27;35.40;45.70
58983;DHT22;44771;49.982;8.560;2023-07-09T15:20:31;35.10;46.10
58983;DHT22;44771;49.982;8.560;2023-07-09T15:25:32;34.80;46.30
58983;DHT22;44771;49.982;8.560;2023-07-09T15:30:34;34.70;46.50
58983;DHT22;44771;49.982;8.560;2023-07-09T15:35:37;34.60;46.60
58983;DHT22;44771;49.982;8.560;2023-07-09T15:40:39;34.60;48.50
58983;DHT22;44771;49.982;8.560;2023-07-09T15:45:45;34.40;47.00
58983;DHT22;44771;49.982;8.560;2023-07-09T15:50:50;34.10;47.20
58983;DHT22;44771;49.982;8.560;2023-07-09T15:56:01;33.80;48.40
58983;DHT22;44771;49.982;8.560;2023-07-09T16:01:04;33.60;47.60
58983;DHT22;44771;49.982;8.560;2023-07-09T16:06:07;33.40;47.90
58983;DHT22;44771;49.982;8.560;2023-07-09T16:11:14;33.20;48.40
58983;DHT22;44771;49.982;8.560;2023-07-09T16:16:17;33.10;49.50
58983;DHT22;44771;49.982;8.560;2023-07-09T16:21:26;33.00;49.60
58983;DHT22;44771;49.982;8.560;2023-07-09T16:26:29;33.10;50.50
58983;DHT22;44771;49.982;8.560;2023-07-09T16:31:31;33.10;50.60
58983;DHT22;44771;49.982;8.560;2023-07-09T16:36:34;33.10;49.90
58983;DHT22;44771;49.982;8.560;2023-07-09T16:41:36;33.00;51.20
58983;DHT22;44771;49.982;8.560;2023-07-09T16:46:38;32.90;52.50
58983;DHT22;44771;49.982;8.560;2023-07-09T16:51:41;32.50;52.90
58983;DHT22;44771;49.982;8.560;2023-07-09T16:56:43;32.40;54.30
58983;DHT22;44771;49.982;8.560;2023-07-09T17:01:45;32.10;55.50
58983;DHT22;44771;49.982;8.560;2023-07-09T17:06:49;31.80;53.10
58983;DHT22;44771;49.982;8.560;2023-07-09T17:11:55;31.70;53.40
58983;DHT22;44771;49.982;8.560;2023-07-09T17:16:57;31.60;54.40
58983;DHT22;44771;49.982;8.560;2023-07-09T17:22:01;31.30;53.10
58983;DHT22;44771;49.982;8.560;2023-07-09T17:27:03;31.20;53.10
58983;DHT22;44771;49.982;8.560;2023-07-09T17:32:05;31.00;53.90
58983;DHT22;44771;49.982;8.560;2023-07-09T17:37:11;30.80;54.70
58983;DHT22;44771;49.982;8.560;2023-07-09T17:42:15;30.50;56.10
58983;DHT22;44771;49.982;8.560;2023-07-09T17:47:19;30.20;57.00
58983;DHT22;44771;49.982;8.560;2023-07-09T17:52:22;29.90;57.60
58983;DHT22;44771;49.982;8.560;2023-07-09T17:57:25;29.70;58.90
58983;DHT22;44771;49.982;8.560;2023-07-09T18:02:28;29.40;60.90
58983;DHT22;44771;49.982;8.560;2023-07-09T18:07:32;29.20;60.90
58983;DHT22;44771;49.982;8.560;2023-07-09T18:12:34;29.00;62.20
58983;DHT22;44771;49.982;8.560;2023-07-09T18:17:36;29.00;61.90
58983;DHT22;44771;49.982;8.560;2023-07-09T18:22:39;29.00;61.80
58983;DHT22;44771;49.982;8.560;2023-07-09T18:27:43;28.90;61.70
58983;DHT22;44771;49.982;8.560;2023-07-09T18:32:47;28.70;62.70
58983;DHT22;44771;49.982;8.560;2023-07-09T18:37:52;28.30;64.30
58983;DHT22;44771;49.982;8.560;2023-07-09T18:42:54;28.00;65.00
58983;DHT22;44771;49.982;8.560;2023-07-09T18:47:56;27.80;65.90
58983;DHT22;44771;49.982;8.560;2023-07-09T18:52:59;27.50;66.40
58983;DHT22;44771;49.982;8.560;2023-07-09T18:58:01;27.30;68.00
58983;DHT22;44771;49.982;8.560;2023-07-09T19:03:04;27.00;68.10
58983;DHT22;44771;49.982;8.560;2023-07-09T19:08:17;26.70;69.30
58983;DHT22;44771;49.982;8.560;2023-07-09T19:19:03;26.30;71.40
58983;DHT22;44771;49.982;8.560;2023-07-09T19:24:17;26.00;70.90
58983;DHT22;44771;49.982;8.560;2023-07-09T19:29:20;25.60;72.00
58983;DHT22;44771;49.982;8.560;2023-07-09T19:34:24;25.50;73.10
58983;DHT22;44771;49.982;8.560;2023-07-09T19:39:30;25.60;73.10
58983;DHT22;44771;49.982;8.560;2023-07-09T19:44:34;25.50;73.20
58983;DHT22;44771;49.982;8.560;2023-07-09T19:49:35;25.40;73.70
58983;DHT22;44771;49.982;8.560;2023-07-09T19:54:40;25.30;73.90
58983;DHT22;44771;49.982;8.560;2023-07-09T19:59:42;25.20;75.20
58983;DHT22;44771;49.982;8.560;2023-07-09T20:04:44;25.10;77.40
58983;DHT22;44771;49.982;8.560;2023-07-09T20:09:47;25.10;77.40
58983;DHT22;44771;49.982;8.560;2023-07-09T20:14:49;24.70;78.00
58983;DHT22;44771;49.982;8.560;2023-07-09T20:19:51;24.30;78.40
58983;DHT22;44771;49.982;8.560;2023-07-09T20:24:54;24.20;79.30
58983;DHT22;44771;49.982;8.560;2023-07-09T20:29:56;24.00;80.70
58983;DHT22;44771;49.982;8.560;2023-07-09T20:34:59;23.90;82.40
58983;DHT22;44771;49.982;8.560;2023-07-09T20:40:04;23.70;83.40
58983;DHT22;44771;49.982;8.560;2023-07-09T20:45:13;23.50;84.20
58983;DHT22;44771;49.982;8.560;2023-07-09T20:50:17;23.20;85.20
58983;DHT22;44771;49.982;8.560;2023-07-09T20:55:20;23.10;86.70
58983;DHT22;44771;49.982;8.560;2023-07-09T21:00:23;23.00;88.00
58983;DHT22;44771;49.982;8.560;2023-07-09T21:05:24;22.80;89.30
58983;DHT22;44771;49.982;8.560;2023-07-09T21:10:27;22.70;90.50
58983;DHT22;44771;49.982;8.560;2023-07-09T21:15:31;22.50;91.10
58983;DHT22;44771;49.982;8.560;2023-07-09T21:20:33;22.30;91.70
58983;DHT22;44771;49.982;8.560;2023-07-09T21:25:36;22.10;92.30
58983;DHT22;44771;49.982;8.560;2023-07-09T21:30:38;21.90;93.50
58983;DHT22;44771;49.982;8.560;2023-07-09T21:35:43;21.80;95.30
58983;DHT22;44771;49.982;8.560;2023-07-09T21:40:48;21.70;95.50
58983;DHT22;44771;49.982;8.560;2023-07-09T21:45:52;21.60;97.20
58983;DHT22;44771;49.982;8.560;2023-07-09T21:50:55;21.50;96.90
58983;DHT22;44771;49.982;8.560;2023-07-09T21:55:58;21.30;98.70
58983;DHT22;44771;49.982;8.560;2023-07-09T22:00:59;21.30;98.50
58983;DHT22;44771;49.982;8.560;2023-07-09T22:06:01;21.20;99.80
58983;DHT22;44771;49.982;8.560;2023-07-09T22:11:14;21.20;99.90
58983;DHT22;44771;49.982;8.560;2023-07-09T22:16:20;21.50;99.90
58983;DHT22;44771;49.982;8.560;2023-07-09T22:21:24;22.10;99.90
58983;DHT22;44771;49.982;8.560;2023-07-09T22:26:30;22.60;99.60
58983;DHT22;44771;49.982;8.560;2023-07-09T22:31:33;23.00;98.20
58983;DHT22;44771;49.982;8.560;2023-07-09T22:36:34;23.20;97.50
58983;DHT22;44771;49.982;8.560;2023-07-09T22:41:38;23.20;97.90
58983;DHT22;44771;49.982;8.560;2023-07-09T22:46:40;23.00;98.50
58983;DHT22;44771;49.982;8.560;2023-07-09T22:51:43;22.80;98.90
58983;DHT22;44771;49.982;8.560;2023-07-09T22:56:46;22.50;99.60
58983;DHT22;44771;49.982;8.560;2023-07-09T23:01:48;22.40;99.90
58983;DHT22;44771;49.982;8.560;2023-07-09T23:06:50;22.10;99.90
58983;DHT22;44771;49.982;8.560;2023-07-09T23:11:54;21.90;99.90
58983;DHT22;44771;49.982;8.560;2023-07-09T23:16:56;21.70;99.90
58983;DHT22;44771;49.982;8.560;2023-07-09T23:21:58;21.50;99.90
58983;DHT22;44771;49.982;8.560;2023-07-09T23:27:02;21.20;99.90
58983;DHT22;44771;49.982;8.560;2023-07-09T23:32:05;21.10;99.90
58983;DHT22;44771;49.982;8.560;2023-07-09T23:37:07;21.00;99.90
58983;DHT22;44771;49.982;8.560;2023-07-09T23:42:13;20.80;99.90
58983;DHT22;44771;49.982;8.560;2023-07-09T23:47:15;20.70;99.90
58983;DHT22;44771;49.982;8.560;2023-07-09T23:52:17;20.70;99.90
58983;DHT22;44771;49.982;8.560;2023-07-09T23:57:21;20.80;99.90
